sensor_id;sensor_type;location;lat;lon;timestamp;temperature;humidity
49465;DHT22;35358;49.342;8.802;2022-07-23T00:00:03;22.20;99.90
49465;DHT22;35358;49.342;8.802;2022-07-23T00:02:28;22.30;99.90
49465;DHT22;35358;49.342;8.802;2022-07-23T00:04:54;22.30;99.90
49465;DHT22;35358;49.342;8.802;2022-07-23T00:07:19;22.40;99.90
49465;DHT22;35358;49.342;8.802;2022-07-23T00:09:45;22.40;99.90
49465;DHT22;35358;49.342;8.802;2022-07-23T00:12:11;22.30;99.90
49465;DHT22;35358;49.342;8.802;2022-07-23T00:14:36;22.30;99.90
49465;DHT22;35358;49.342;8.802;2022-07-23T00:17:02;22.30;99.90
49465;DHT22;35358;49.342;8.802;2022-07-23T00:19:27;22.30;99.90
49465;DHT22;35358;49.342;8.802;2022-07-23T00:21:55;22.20;99.90
49465;DHT22;35358;49.342;8.802;2022-07-23T00:24:23;21.90;99.90
49465;DHT22;35358;49.342;8.802;2022-07-23T00:26:51;21.90;99.90
49465;DHT22;35358;49.342;8.802;2022-07-23T00:29:19;21.80;99.90
49465;DHT22;35358;49.342;8.802;2022-07-23T00:31:47;21.80;99.90
49465;DHT22;35358;49.342;8.802;2022-07-23T00:34:13;21.70;99.90
49465;DHT22;35358;49.342;8.802;2022-07-23T00:36:41;21.70;99.90
49465;DHT22;35358;49.342;8.802;2022-07-23T00:39:08;21.70;99.90
49465;DHT22;35358;49.342;8.802;2022-07-23T00:41:34;21.60;99.90
49465;DHT22;35358;49.342;8.802;2022-07-23T00:44:33;21.80;99.90
49465;DHT22;35358;49.342;8.802;2022-07-23T00:46:59;21.90;99.90
49465;DHT22;35358;49.342;8.802;2022-07-23T00:49:29;21.70;99.90
49465;DHT22;35358;49.342;8.802;2022-07-23T00:52:00;21.50;99.90
49465;DHT22;35358;49.342;8.802;2022-07-23T00:54:27;21.50;99.90
49465;DHT22;35358;49.342;8.802;2022-07-23T00:56:53;21.70;99.90
49465;DHT22;35358;49.342;8.802;2022-07-23T00:59:21;21.60;99.90
49465;DHT22;35358;49.342;8.802;2022-07-23T01:01:49;21.50;99.90
49465;DHT22;35358;49.342;8.802;2022-07-23T01:04:17;21.30;99.90
49465;DHT22;35358;49.342;8.802;2022-07-23T01:06:43;21.20;99.90
49465;DHT22;35358;49.342;8.802;2022-07-23T01:09:14;21.30;99.90
49465;DHT22;35358;49.342;8.802;2022-07-23T01:11:40;21.40;99.90
49465;DHT22;35358;49.342;8.802;2022-07-23T01:14:15;21.50;99.90
49465;DHT22;35358;49.342;8.802;2022-07-23T01:16:42;21.40;99.90
49465;DHT22;35358;49.342;8.802;2022-07-23T01:19:08;21.30;99.90
49465;DHT22;35358;49.342;8.802;2022-07-23T01:21:37;21.30;99.90
49465;DHT22;35358;49.342;8.802;2022-07-23T01:24:03;21.30;99.90
49465;DHT22;35358;49.342;8.802;2022-07-23T01:26:29;21.20;99.90
49465;DHT22;35358;49.342;8.802;2022-07-23T01:28:55;21.30;99.90
49465;DHT22;35358;49.342;8.802;2022-07-23T01:31:22;21.00;99.90
49465;DHT22;35358;49.342;8.802;2022-07-23T01:33:50;21.00;99.90
49465;DHT22;35358;49.342;8.802;2022-07-23T01:36:16;20.80;99.90
49465;DHT22;35358;49.342;8.802;2022-07-23T01:38:41;20.90;99.90
49465;DHT22;35358;49.342;8.802;2022-07-23T01:41:07;20.90;99.90
49465;DHT22;35358;49.342;8.802;2022-07-23T01:43:33;20.90;99.90
49465;DHT22;35358;49.342;8.802;2022-07-23T01:46:01;20.80;99.90
49465;DHT22;35358;49.342;8.802;2022-07-23T01:48:26;20.70;99.90
49465;DHT22;35358;49.342;8.802;2022-07-23T01:50:54;20.80;99.90
49465;DHT22;35358;49.342;8.802;2022-07-23T01:53:20;20.90;99.90
49465;DHT22;35358;49.342;8.802;2022-07-23T01:55:48;20.90;99.90
49465;DHT22;35358;49.342;8.802;2022-07-23T01:58:13;20.90;99.90
49465;DHT22;35358;49.342;8.802;2022-07-23T02:00:39;20.90;99.90
49465;DHT22;35358;49.342;8.802;2022-07-23T02:03:07;20.90;99.90
49465;DHT22;35358;49.342;8.802;2022-07-23T02:05:33;20.90;99.90
49465;DHT22;35358;49.342;8.802;2022-07-23T02:07:59;20.80;99.90
49465;DHT22;35358;49.342;8.802;2022-07-23T02:10:26;20.70;99.90
49465;DHT22;35358;49.342;8.802;2022-07-23T02:12:52;20.70;99.90
49465;DHT22;35358;49.342;8.802;2022-07-23T02:15:20;20.70;99.90
49465;DHT22;35358;49.342;8.802;2022-07-23T02:17:48;20.70;99.90
49465;DHT22;35358;49.342;8.802;2022-07-23T02:20:13;20.60;99.90
49465;DHT22;35358;49.342;8.802;2022-07-23T02:22:40;20.50;99.90
49465;DHT22;35358;49.342;8.802;2022-07-23T02:25:07;20.40;99.90
49465;DHT22;35358;49.342;8.802;2022-07-23T02:27:32;20.40;99.90
49465;DHT22;35358;49.342;8.802;2022-07-23T02:30:00;20.40;99.90
49465;DHT22;35358;49.342;8.802;2022-07-23T02:32:27;20.40;99.90
49465;DHT22;35358;49.342;8.802;2022-07-23T02:34:54;20.40;99.90
49465;DHT22;35358;49.342;8.802;2022-07-23T02:37:20;20.50;99.90
49465;DHT22;35358;49.342;8.802;2022-07-23T02:39:45;20.40;99.90
49465;DHT22;35358;49.342;8.802;2022-07-23T02:42:13;20.50;99.90
49465;DHT22;35358;49.342;8.802;2022-07-23T02:44:39;20.50;99.90
49465;DHT22;35358;49.342;8.802;2022-07-23T02:47:05;20.50;99.90
49465;DHT22;35358;49.342;8.802;2022-07-23T02:49:33;20.20;99.90
49465;DHT22;35358;49.342;8.802;2022-07-23T02:51:59;20.10;99.90
49465;DHT22;35358;49.342;8.802;2022-07-23T02:54:27;20.10;99.90
49465;DHT22;35358;49.342;8.802;2022-07-23T02:56:52;20.10;99.90
49465;DHT22;35358;49.342;8.802;2022-07-23T02:59:21;20.20;99.90
49465;DHT22;35358;49.342;8.802;2022-07-23T03:01:47;20.30;99.90
49465;DHT22;35358;49.342;8.802;2022-07-23T03:04:12;20.30;99.90
49465;DHT22;35358;49.342;8.802;2022-07-23T03:06:38;20.40;99.90
49465;DHT22;35358;49.342;8.802;2022-07-23T03:09:06;20.60;99.90
49465;DHT22;35358;49.342;8.802;2022-07-23T03:11:35;20.70;99.90
49465;DHT22;35358;49.342;8.802;2022-07-23T03:14:02;20.70;99.90
49465;DHT22;35358;49.342;8.802;2022-07-23T03:16:28;20.70;99.90
49465;DHT22;35358;49.342;8.802;2022-07-23T03:18:54;20.60;99.90
49465;DHT22;35358;49.342;8.802;2022-07-23T03:21:19;20.60;99.90
49465;DHT22;35358;49.342;8.802;2022-07-23T03:23:45;20.60;99.90
49465;DHT22;35358;49.342;8.802;2022-07-23T03:26:10;20.60;99.90
49465;DHT22;35358;49.342;8.802;2022-07-23T03:28:38;20.60;99.90
49465;DHT22;35358;49.342;8.802;2022-07-23T03:31:04;20.60;99.90
49465;DHT22;35358;49.342;8.802;2022-07-23T03:33:29;20.60;99.90
49465;DHT22;35358;49.342;8.802;2022-07-23T03:35:57;20.60;99.90
49465;DHT22;35358;49.342;8.802;2022-07-23T03:38:23;20.70;99.90
49465;DHT22;35358;49.342;8.802;2022-07-23T03:40:50;20.80;99.90
49465;DHT22;35358;49.342;8.802;2022-07-23T03:43:16;20.70;99.90
49465;DHT22;35358;49.342;8.802;2022-07-23T03:45:46;20.70;99.90
49465;DHT22;35358;49.342;8.802;2022-07-23T03:48:12;20.70;99.90
49465;DHT22;35358;49.342;8.802;2022-07-23T03:50:40;20.70;99.90
49465;DHT22;35358;49.342;8.802;2022-07-23T03:53:05;20.50;99.90
49465;DHT22;35358;49.342;8.802;2022-07-23T03:55:33;20.30;99.90
49465;DHT22;35358;49.342;8.802;2022-07-23T03:58:01;20.30;99.90
49465;DHT22;35358;49.342;8.802;2022-07-23T04:00:27;20.30;99.90
49465;DHT22;35358;49.342;8.802;2022-07-23T04:02:52;20.30;99.90
49465;DHT22;35358;49.342;8.802;2022-07-23T04:05:20;20.30;99.90
49465;DHT22;35358;49.342;8.802;2022-07-23T04:07:46;20.30;99.90
49465;DHT22;35358;49.342;8.802;2022-07-23T04:10:11;20.20;99.90
49465;DHT22;35358;49.342;8.802;2022-07-23T04:12:39;20.30;99.90
49465;DHT22;35358;49.342;8.802;2022-07-23T04:15:07;20.30;99.90
49465;DHT22;35358;49.342;8.802;2022-07-23T04:17:35;20.30;99.90
49465;DHT22;35358;49.342;8.802;2022-07-23T04:20:05;20.30;99.90
49465;DHT22;35358;49.342;8.802;2022-07-23T04:22:31;20.40;99.90
49465;DHT22;35358;49.342;8.802;2022-07-23T04:24:57;20.40;99.90
49465;DHT22;35358;49.342;8.802;2022-07-23T04:27:22;20.30;99.90
49465;DHT22;35358;49.342;8.802;2022-07-23T04:29:50;20.40;99.90
49465;DHT22;35358;49.342;8.802;2022-07-23T04:32:15;20.40;99.90
49465;DHT22;35358;49.342;8.802;2022-07-23T04:34:43;20.30;99.90
49465;DHT22;35358;49.342;8.802;2022-07-23T04:37:09;20.40;99.90
49465;DHT22;35358;49.342;8.802;2022-07-23T04:39:34;20.40;99.90
49465;DHT22;35358;49.342;8.802;2022-07-23T04:42:00;20.40;99.90
49465;DHT22;35358;49.342;8.802;2022-07-23T04:44:28;20.30;99.90
49465;DHT22;35358;49.342;8.802;2022-07-23T04:46:53;20.30;99.90
49465;DHT22;35358;49.342;8.802;2022-07-23T04:49:24;20.40;99.90
49465;DHT22;35358;49.342;8.802;2022-07-23T04:51:49;20.40;99.90
49465;DHT22;35358;49.342;8.802;2022-07-23T04:54:15;20.30;99.90
49465;DHT22;35358;49.342;8.802;2022-07-23T04:56:45;20.50;99.90
49465;DHT22;35358;49.342;8.802;2022-07-23T04:59:10;20.50;99.90
49465;DHT22;35358;49.342;8.802;2022-07-23T05:01:36;20.40;99.90
49465;DHT22;35358;49.342;8.802;2022-07-23T05:04:06;20.20;99.90
49465;DHT22;35358;49.342;8.802;2022-07-23T05:06:32;20.10;99.90
49465;DHT22;35358;49.342;8.802;2022-07-23T05:09:00;20.20;99.90
49465;DHT22;35358;49.342;8.802;2022-07-23T05:11:25;20.10;99.90
49465;DHT22;35358;49.342;8.802;2022-07-23T05:13:53;20.10;99.90
49465;DHT22;35358;49.342;8.802;2022-07-23T05:16:22;20.10;99.90
49465;DHT22;35358;49.342;8.802;2022-07-23T05:18:54;20.10;99.90
49465;DHT22;35358;49.342;8.802;2022-07-23T05:21:22;20.20;99.90
49465;DHT22;35358;49.342;8.802;2022-07-23T05:23:50;20.30;99.90
49465;DHT22;35358;49.342;8.802;2022-07-23T05:26:16;20.20;99.90
49465;DHT22;35358;49.342;8.802;2022-07-23T05:28:44;20.20;99.90
49465;DHT22;35358;49.342;8.802;2022-07-23T05:31:11;20.30;99.90
49465;DHT22;35358;49.342;8.802;2022-07-23T05:33:39;20.20;99.90
49465;DHT22;35358;49.342;8.802;2022-07-23T05:36:05;20.20;99.90
49465;DHT22;35358;49.342;8.802;2022-07-23T05:38:32;20.30;99.90
49465;DHT22;35358;49.342;8.802;2022-07-23T05:41:00;20.30;99.90
49465;DHT22;35358;49.342;8.802;2022-07-23T05:43:26;20.30;99.90
49465;DHT22;35358;49.342;8.802;2022-07-23T05:45:52;20.30;99.90
49465;DHT22;35358;49.342;8.802;2022-07-23T05:48:22;20.30;99.90
49465;DHT22;35358;49.342;8.802;2022-07-23T05:50:48;20.30;99.90
49465;DHT22;35358;49.342;8.802;2022-07-23T05:53:16;20.30;99.90
49465;DHT22;35358;49.342;8.802;2022-07-23T05:55:46;20.40;99.90
49465;DHT22;35358;49.342;8.802;2022-07-23T05:58:11;20.40;99.90
49465;DHT22;35358;49.342;8.802;2022-07-23T06:00:37;20.40;99.90
49465;DHT22;35358;49.342;8.802;2022-07-23T06:03:02;20.40;99.90
49465;DHT22;35358;49.342;8.802;2022-07-23T06:05:31;20.30;99.90
49465;DHT22;35358;49.342;8.802;2022-07-23T06:07:58;20.30;99.90
49465;DHT22;35358;49.342;8.802;2022-07-23T06:10:24;20.40;99.90
49465;DHT22;35358;49.342;8.802;2022-07-23T06:12:50;20.50;99.90
49465;DHT22;35358;49.342;8.802;2022-07-23T06:15:15;20.60;99.90
49465;DHT22;35358;49.342;8.802;2022-07-23T06:17:41;20.50;99.90
49465;DHT22;35358;49.342;8.802;2022-07-23T06:20:10;20.60;99.90
49465;DHT22;35358;49.342;8.802;2022-07-23T06:22:37;20.60;99.90
49465;DHT22;35358;49.342;8.802;2022-07-23T06:25:04;20.60;99.90
49465;DHT22;35358;49.342;8.802;2022-07-23T06:27:32;20.80;99.90
49465;DHT22;35358;49.342;8.802;2022-07-23T06:30:00;20.90;99.90
49465;DHT22;35358;49.342;8.802;2022-07-23T06:32:26;20.90;99.90
49465;DHT22;35358;49.342;8.802;2022-07-23T06:34:51;20.90;99.90
49465;DHT22;35358;49.342;8.802;2022-07-23T06:37:17;20.90;99.90
49465;DHT22;35358;49.342;8.802;2022-07-23T06:39:43;20.90;99.90
49465;DHT22;35358;49.342;8.802;2022-07-23T06:42:08;20.90;99.90
49465;DHT22;35358;49.342;8.802;2022-07-23T06:44:37;20.80;99.90
49465;DHT22;35358;49.342;8.802;2022-07-23T06:47:02;20.90;99.90
49465;DHT22;35358;49.342;8.802;2022-07-23T06:49:28;20.90;99.90
49465;DHT22;35358;49.342;8.802;2022-07-23T06:51:56;20.90;99.90
49465;DHT22;35358;49.342;8.802;2022-07-23T06:54:22;20.90;99.90
49465;DHT22;35358;49.342;8.802;2022-07-23T06:56:47;20.90;99.90
49465;DHT22;35358;49.342;8.802;2022-07-23T06:59:14;21.00;99.90
49465;DHT22;35358;49.342;8.802;2022-07-23T07:01:39;20.90;99.90
49465;DHT22;35358;49.342;8.802;2022-07-23T07:04:10;21.00;99.90
49465;DHT22;35358;49.342;8.802;2022-07-23T07:06:37;20.90;99.90
49465;DHT22;35358;49.342;8.802;2022-07-23T07:09:06;20.90;99.90
49465;DHT22;35358;49.342;8.802;2022-07-23T07:11:33;21.10;99.90
49465;DHT22;35358;49.342;8.802;2022-07-23T07:13:59;21.10;99.90
49465;DHT22;35358;49.342;8.802;2022-07-23T07:16:25;21.20;99.90
49465;DHT22;35358;49.342;8.802;2022-07-23T07:18:50;21.30;99.90
49465;DHT22;35358;49.342;8.802;2022-07-23T07:21:16;21.30;99.90
49465;DHT22;35358;49.342;8.802;2022-07-23T07:23:43;21.40;99.90
49465;DHT22;35358;49.342;8.802;2022-07-23T07:26:09;21.40;99.90
49465;DHT22;35358;49.342;8.802;2022-07-23T07:28:35;21.60;99.90
49465;DHT22;35358;49.342;8.802;2022-07-23T07:31:03;21.70;99.90
49465;DHT22;35358;49.342;8.802;2022-07-23T07:33:28;21.90;99.90
49465;DHT22;35358;49.342;8.802;2022-07-23T07:35:54;21.90;99.90
49465;DHT22;35358;49.342;8.802;2022-07-23T07:38:20;21.90;99.90
49465;DHT22;35358;49.342;8.802;2022-07-23T07:40:48;21.90;99.90
49465;DHT22;35358;49.342;8.802;2022-07-23T07:43:13;21.90;99.90
49465;DHT22;35358;49.342;8.802;2022-07-23T07:45:41;21.80;99.90
49465;DHT22;35358;49.342;8.802;2022-07-23T07:48:07;21.80;99.90
49465;DHT22;35358;49.342;8.802;2022-07-23T07:50:34;21.80;99.90
49465;DHT22;35358;49.342;8.802;2022-07-23T07:53:00;21.70;99.90
49465;DHT22;35358;49.342;8.802;2022-07-23T07:55:26;21.70;99.90
49465;DHT22;35358;49.342;8.802;2022-07-23T07:57:52;21.90;99.90
49465;DHT22;35358;49.342;8.802;2022-07-23T08:00:18;22.00;99.90
49465;DHT22;35358;49.342;8.802;2022-07-23T08:02:45;22.00;99.90
49465;DHT22;35358;49.342;8.802;2022-07-23T08:05:11;21.90;99.90
49465;DHT22;35358;49.342;8.802;2022-07-23T08:07:38;22.00;99.90
49465;DHT22;35358;49.342;8.802;2022-07-23T08:10:08;22.00;99.90
49465;DHT22;35358;49.342;8.802;2022-07-23T08:12:37;22.10;99.90
49465;DHT22;35358;49.342;8.802;2022-07-23T08:15:03;22.20;99.90
49465;DHT22;35358;49.342;8.802;2022-07-23T08:17:29;22.20;99.90
49465;DHT22;35358;49.342;8.802;2022-07-23T08:19:55;22.20;99.90
49465;DHT22;35358;49.342;8.802;2022-07-23T08:22:23;22.10;99.90
49465;DHT22;35358;49.342;8.802;2022-07-23T08:24:48;22.40;99.90
49465;DHT22;35358;49.342;8.802;2022-07-23T08:27:14;22.60;99.90
49465;DHT22;35358;49.342;8.802;2022-07-23T08:29:39;22.60;99.90
49465;DHT22;35358;49.342;8.802;2022-07-23T08:32:05;22.70;99.90
49465;DHT22;35358;49.342;8.802;2022-07-23T08:34:30;22.60;99.90
49465;DHT22;35358;49.342;8.802;2022-07-23T08:36:56;22.90;99.90
49465;DHT22;35358;49.342;8.802;2022-07-23T08:39:22;23.20;99.90
49465;DHT22;35358;49.342;8.802;2022-07-23T08:41:50;23.30;99.90
49465;DHT22;35358;49.342;8.802;2022-07-23T08:44:18;23.30;99.90
49465;DHT22;35358;49.342;8.802;2022-07-23T08:46:46;23.20;99.90
49465;DHT22;35358;49.342;8.802;2022-07-23T08:49:15;23.20;99.90
49465;DHT22;35358;49.342;8.802;2022-07-23T08:51:41;23.30;99.90
49465;DHT22;35358;49.342;8.802;2022-07-23T08:54:10;23.20;99.90
49465;DHT22;35358;49.342;8.802;2022-07-23T08:56:38;23.10;99.90
49465;DHT22;35358;49.342;8.802;2022-07-23T08:59:04;23.00;99.90
49465;DHT22;35358;49.342;8.802;2022-07-23T09:01:29;23.00;99.90
49465;DHT22;35358;49.342;8.802;2022-07-23T09:03:55;23.10;99.90
49465;DHT22;35358;49.342;8.802;2022-07-23T09:06:23;23.10;99.90
49465;DHT22;35358;49.342;8.802;2022-07-23T09:08:49;23.10;99.90
49465;DHT22;35358;49.342;8.802;2022-07-23T09:11:20;23.20;99.90
49465;DHT22;35358;49.342;8.802;2022-07-23T09:13:49;23.30;99.90
49465;DHT22;35358;49.342;8.802;2022-07-23T09:18:56;23.50;99.90
49465;DHT22;35358;49.342;8.802;2022-07-23T09:21:35;23.50;99.90
49465;DHT22;35358;49.342;8.802;2022-07-23T09:24:05;23.40;99.90
49465;DHT22;35358;49.342;8.802;2022-07-23T09:31:43;23.30;99.90
49465;DHT22;35358;49.342;8.802;2022-07-23T09:34:23;23.30;99.90
49465;DHT22;35358;49.342;8.802;2022-07-23T09:39:36;23.30;99.90
49465;DHT22;35358;49.342;8.802;2022-07-23T09:42:18;23.20;99.90
49465;DHT22;35358;49.342;8.802;2022-07-23T09:44:55;23.30;99.90
49465;DHT22;35358;49.342;8.802;2022-07-23T09:47:23;23.50;99.90
49465;DHT22;35358;49.342;8.802;2022-07-23T09:50:03;23.50;99.90
49465;DHT22;35358;49.342;8.802;2022-07-23T09:52:36;23.80;99.90
49465;DHT22;35358;49.342;8.802;2022-07-23T09:55:04;23.70;99.90
49465;DHT22;35358;49.342;8.802;2022-07-23T09:57:32;23.70;99.90
49465;DHT22;35358;49.342;8.802;2022-07-23T10:00:06;23.80;99.90
49465;DHT22;35358;49.342;8.802;2022-07-23T10:02:34;23.90;99.90
49465;DHT22;35358;49.342;8.802;2022-07-23T10:05:02;24.00;99.90
49465;DHT22;35358;49.342;8.802;2022-07-23T10:07:35;24.00;99.90
49465;DHT22;35358;49.342;8.802;2022-07-23T10:10:05;24.10;99.90
49465;DHT22;35358;49.342;8.802;2022-07-23T10:12:32;24.20;99.90
49465;DHT22;35358;49.342;8.802;2022-07-23T10:15:18;24.30;99.90
49465;DHT22;35358;49.342;8.802;2022-07-23T10:17:48;23.90;99.90
49465;DHT22;35358;49.342;8.802;2022-07-23T10:20:13;24.10;99.90
49465;DHT22;35358;49.342;8.802;2022-07-23T10:26:17;24.10;99.90
49465;DHT22;35358;49.342;8.802;2022-07-23T10:37:21;25.00;99.90
49465;DHT22;35358;49.342;8.802;2022-07-23T10:42:37;24.90;99.90
49465;DHT22;35358;49.342;8.802;2022-07-23T10:47:50;25.10;99.90
49465;DHT22;35358;49.342;8.802;2022-07-23T10:58:05;25.60;99.90
49465;DHT22;35358;49.342;8.802;2022-07-23T11:00:33;25.70;99.90
49465;DHT22;35358;49.342;8.802;2022-07-23T11:03:01;25.80;99.90
49465;DHT22;35358;49.342;8.802;2022-07-23T11:05:47;25.90;99.90
49465;DHT22;35358;49.342;8.802;2022-07-23T11:10:51;25.80;99.90
49465;DHT22;35358;49.342;8.802;2022-07-23T11:13:39;25.80;99.90
49465;DHT22;35358;49.342;8.802;2022-07-23T11:16:11;25.70;99.90
49465;DHT22;35358;49.342;8.802;2022-07-23T11:24:14;26.10;99.90
49465;DHT22;35358;49.342;8.802;2022-07-23T11:31:59;26.50;99.90
49465;DHT22;35358;49.342;8.802;2022-07-23T11:34:32;26.70;99.90
49465;DHT22;35358;49.342;8.802;2022-07-23T11:37:03;26.80;99.90
49465;DHT22;35358;49.342;8.802;2022-07-23T11:39:31;26.90;99.90
49465;DHT22;35358;49.342;8.802;2022-07-23T11:42:01;27.00;99.90
49465;DHT22;35358;49.342;8.802;2022-07-23T11:44:37;27.10;99.90
49465;DHT22;35358;49.342;8.802;2022-07-23T11:47:08;26.90;99.90
49465;DHT22;35358;49.342;8.802;2022-07-23T11:49:37;26.80;99.90
49465;DHT22;35358;49.342;8.802;2022-07-23T11:52:09;26.70;99.90
49465;DHT22;35358;49.342;8.802;2022-07-23T11:54:47;26.70;99.90
49465;DHT22;35358;49.342;8.802;2022-07-23T11:57:16;26.60;99.90
49465;DHT22;35358;49.342;8.802;2022-07-23T11:59:42;26.80;99.90
49465;DHT22;35358;49.342;8.802;2022-07-23T12:02:08;27.00;99.90
49465;DHT22;35358;49.342;8.802;2022-07-23T12:04:43;26.90;99.90
49465;DHT22;35358;49.342;8.802;2022-07-23T12:10:02;27.10;99.90
49465;DHT22;35358;49.342;8.802;2022-07-23T12:12:46;27.20;99.90
49465;DHT22;35358;49.342;8.802;2022-07-23T12:15:14;27.40;99.90
49465;DHT22;35358;49.342;8.802;2022-07-23T12:17:43;27.40;99.90
49465;DHT22;35358;49.342;8.802;2022-07-23T12:20:13;27.60;99.90
49465;DHT22;35358;49.342;8.802;2022-07-23T12:22:41;27.80;99.90
49465;DHT22;35358;49.342;8.802;2022-07-23T12:25:27;27.80;99.90
49465;DHT22;35358;49.342;8.802;2022-07-23T12:33:01;28.10;99.90
49465;DHT22;35358;49.342;8.802;2022-07-23T12:35:40;28.30;99.90
49465;DHT22;35358;49.342;8.802;2022-07-23T12:38:11;28.30;99.90
49465;DHT22;35358;49.342;8.802;2022-07-23T12:43:18;27.80;99.90
49465;DHT22;35358;49.342;8.802;2022-07-23T12:48:28;27.70;99.90
49465;DHT22;35358;49.342;8.802;2022-07-23T12:50:59;27.50;99.90
49465;DHT22;35358;49.342;8.802;2022-07-23T12:56:20;27.70;99.90
49465;DHT22;35358;49.342;8.802;2022-07-23T12:58:55;28.20;99.90
49465;DHT22;35358;49.342;8.802;2022-07-23T13:01:27;28.50;99.90
49465;DHT22;35358;49.342;8.802;2022-07-23T13:04:03;28.60;99.90
49465;DHT22;35358;49.342;8.802;2022-07-23T13:06:52;28.10;99.90
49465;DHT22;35358;49.342;8.802;2022-07-23T13:09:28;28.60;99.90
49465;DHT22;35358;49.342;8.802;2022-07-23T13:11:55;27.90;99.90
49465;DHT22;35358;49.342;8.802;2022-07-23T13:14:21;27.40;99.90
49465;DHT22;35358;49.342;8.802;2022-07-23T13:16:49;27.30;99.90
49465;DHT22;35358;49.342;8.802;2022-07-23T13:19:15;27.20;99.90
49465;DHT22;35358;49.342;8.802;2022-07-23T13:21:41;26.90;99.90
49465;DHT22;35358;49.342;8.802;2022-07-23T13:24:08;27.00;99.90
49465;DHT22;35358;49.342;8.802;2022-07-23T13:26:34;27.10;99.90
49465;DHT22;35358;49.342;8.802;2022-07-23T13:29:02;27.30;99.90
49465;DHT22;35358;49.342;8.802;2022-07-23T13:31:28;28.00;99.90
49465;DHT22;35358;49.342;8.802;2022-07-23T13:33:55;28.40;99.90
49465;DHT22;35358;49.342;8.802;2022-07-23T13:36:21;28.30;99.90
49465;DHT22;35358;49.342;8.802;2022-07-23T13:38:49;28.80;99.90
49465;DHT22;35358;49.342;8.802;2022-07-23T13:41:17;28.70;99.90
49465;DHT22;35358;49.342;8.802;2022-07-23T13:43:43;28.60;99.90
49465;DHT22;35358;49.342;8.802;2022-07-23T13:46:08;28.70;99.90
49465;DHT22;35358;49.342;8.802;2022-07-23T13:48:34;28.40;99.90
49465;DHT22;35358;49.342;8.802;2022-07-23T13:51:00;27.90;99.90
49465;DHT22;35358;49.342;8.802;2022-07-23T13:53:26;27.40;99.90
49465;DHT22;35358;49.342;8.802;2022-07-23T13:55:53;27.40;99.90
49465;DHT22;35358;49.342;8.802;2022-07-23T13:58:19;27.50;99.90
49465;DHT22;35358;49.342;8.802;2022-07-23T14:00:50;27.40;99.90
49465;DHT22;35358;49.342;8.802;2022-07-23T14:03:17;27.80;99.90
49465;DHT22;35358;49.342;8.802;2022-07-23T14:05:45;27.50;99.90
49465;DHT22;35358;49.342;8.802;2022-07-23T14:08:13;27.50;99.90
49465;DHT22;35358;49.342;8.802;2022-07-23T14:10:39;27.40;99.90
49465;DHT22;35358;49.342;8.802;2022-07-23T14:13:07;27.60;99.90
49465;DHT22;35358;49.342;8.802;2022-07-23T14:15:35;27.70;99.90
49465;DHT22;35358;49.342;8.802;2022-07-23T14:18:00;27.60;99.90
49465;DHT22;35358;49.342;8.802;2022-07-23T14:20:26;27.20;99.90
49465;DHT22;35358;49.342;8.802;2022-07-23T14:22:54;27.10;99.90
49465;DHT22;35358;49.342;8.802;2022-07-23T14:25:22;26.90;99.90
49465;DHT22;35358;49.342;8.802;2022-07-23T14:27:47;26.70;99.90
49465;DHT22;35358;49.342;8.802;2022-07-23T14:30:13;26.60;99.90
49465;DHT22;35358;49.342;8.802;2022-07-23T14:32:40;26.70;99.90
49465;DHT22;35358;49.342;8.802;2022-07-23T14:35:06;26.80;99.90
49465;DHT22;35358;49.342;8.802;2022-07-23T14:37:32;27.00;99.90
49465;DHT22;35358;49.342;8.802;2022-07-23T14:39:58;27.10;99.90
49465;DHT22;35358;49.342;8.802;2022-07-23T14:42:25;27.20;99.90
49465;DHT22;35358;49.342;8.802;2022-07-23T14:44:53;26.90;99.90
49465;DHT22;35358;49.342;8.802;2022-07-23T14:47:21;27.10;99.90
49465;DHT22;35358;49.342;8.802;2022-07-23T14:49:47;27.10;99.90
49465;DHT22;35358;49.342;8.802;2022-07-23T14:52:12;27.40;99.90
49465;DHT22;35358;49.342;8.802;2022-07-23T14:54:38;27.30;99.90
49465;DHT22;35358;49.342;8.802;2022-07-23T14:57:06;27.00;99.90
49465;DHT22;35358;49.342;8.802;2022-07-23T14:59:33;27.50;99.90
49465;DHT22;35358;49.342;8.802;2022-07-23T15:02:01;28.00;99.90
49465;DHT22;35358;49.342;8.802;2022-07-23T15:04:29;28.20;99.90
49465;DHT22;35358;49.342;8.802;2022-07-23T15:06:55;28.00;99.90
49465;DHT22;35358;49.342;8.802;2022-07-23T15:09:21;27.70;99.90
49465;DHT22;35358;49.342;8.802;2022-07-23T15:11:46;27.70;99.90
49465;DHT22;35358;49.342;8.802;2022-07-23T15:14:14;27.90;99.90
49465;DHT22;35358;49.342;8.802;2022-07-23T15:16:42;28.10;99.90
49465;DHT22;35358;49.342;8.802;2022-07-23T15:19:08;28.90;99.90
49465;DHT22;35358;49.342;8.802;2022-07-23T15:21:33;29.70;99.90
49465;DHT22;35358;49.342;8.802;2022-07-23T15:23:59;29.70;99.90
49465;DHT22;35358;49.342;8.802;2022-07-23T15:26:29;29.80;99.90
49465;DHT22;35358;49.342;8.802;2022-07-23T15:28:59;30.00;99.90
49465;DHT22;35358;49.342;8.802;2022-07-23T15:31:28;30.00;99.90
49465;DHT22;35358;49.342;8.802;2022-07-23T15:33:53;30.40;99.90
49465;DHT22;35358;49.342;8.802;2022-07-23T15:36:20;30.30;99.90
49465;DHT22;35358;49.342;8.802;2022-07-23T15:38:46;30.20;99.90
49465;DHT22;35358;49.342;8.802;2022-07-23T15:41:12;30.40;99.90
49465;DHT22;35358;49.342;8.802;2022-07-23T15:43:38;30.30;99.90
49465;DHT22;35358;49.342;8.802;2022-07-23T15:46:04;30.00;99.90
49465;DHT22;35358;49.342;8.802;2022-07-23T15:48:31;30.20;99.90
49465;DHT22;35358;49.342;8.802;2022-07-23T15:50:57;30.00;99.90
49465;DHT22;35358;49.342;8.802;2022-07-23T15:53:22;29.90;99.90
49465;DHT22;35358;49.342;8.802;2022-07-23T15:55:48;30.20;99.90
49465;DHT22;35358;49.342;8.802;2022-07-23T15:58:16;30.70;99.90
49465;DHT22;35358;49.342;8.802;2022-07-23T16:00:44;30.90;99.90
49465;DHT22;35358;49.342;8.802;2022-07-23T16:03:10;30.30;99.90
49465;DHT22;35358;49.342;8.802;2022-07-23T16:05:35;30.20;99.90
49465;DHT22;35358;49.342;8.802;2022-07-23T16:08:03;30.60;99.90
49465;DHT22;35358;49.342;8.802;2022-07-23T16:10:29;30.60;99.90
49465;DHT22;35358;49.342;8.802;2022-07-23T16:12:54;30.60;99.90
49465;DHT22;35358;49.342;8.802;2022-07-23T16:15:22;30.40;99.90
49465;DHT22;35358;49.342;8.802;2022-07-23T16:17:48;30.30;99.90
49465;DHT22;35358;49.342;8.802;2022-07-23T16:20:14;30.60;99.90
49465;DHT22;35358;49.342;8.802;2022-07-23T16:22:43;31.00;99.90
49465;DHT22;35358;49.342;8.802;2022-07-23T16:25:09;31.10;99.90
49465;DHT22;35358;49.342;8.802;2022-07-23T16:27:38;31.10;99.90
49465;DHT22;35358;49.342;8.802;2022-07-23T16:30:08;30.50;99.90
49465;DHT22;35358;49.342;8.802;2022-07-23T16:32:34;30.10;99.90
49465;DHT22;35358;49.342;8.802;2022-07-23T16:35:00;29.10;99.90
49465;DHT22;35358;49.342;8.802;2022-07-23T16:37:26;28.60;99.90